Time;durP1;ratioP1;P1;durP2;ratioP2;P2;SDS_P1;SDS_P2;PMS_P1;PMS_P2;Temp;Humidity;BMP_temperature;BMP_pressure;BME280_temperature;BME280_humidity;BME280_pressure;Samples;Min_cycle;Max_cycle;Signal;HPM_P1;HPM_P2
2023/12/26 00:00:23;;;;;;;0.70;0.70;;;10.60;99.90;;;;;;5008454;28;20025;-86
2023/12/26 00:02:55;;;;;;;2.25;0.90;;;10.60;99.90;;;;;;5029735;28;20016;-87
2023/12/26 00:05:24;;;;;;;1.92;0.68;;;10.60;99.90;;;;;;5025059;28;20057;-86
2023/12/26 00:07:50;;;;;;;2.28;0.50;;;10.60;99.90;;;;;;5027506;28;20021;-87
2023/12/26 00:10:15;;;;;;;2.00;0.90;;;10.60;99.90;;;;;;5027007;28;20039;-87
2023/12/26 00:12:43;;;;;;;1.88;0.88;;;10.50;99.90;;;;;;5042420;28;20028;-87
2023/12/26 00:15:09;;;;;;;1.42;0.80;;;10.50;99.90;;;;;;5030857;28;20034;-87
2023/12/26 00:17:35;;;;;;;0.60;0.40;;;10.60;99.90;;;;;;5027751;28;20040;-88
2023/12/26 00:20:05;;;;;;;1.02;0.85;;;10.60;99.90;;;;;;5047212;28;20046;-87
2023/12/26 00:22:31;;;;;;;1.92;0.90;;;10.60;99.90;;;;;;5047866;28;20068;-87
2023/12/26 00:24:56;;;;;;;1.15;0.65;;;10.60;99.90;;;;;;5013392;28;20068;-85
2023/12/26 00:27:22;;;;;;;1.17;0.80;;;10.60;99.90;;;;;;5019736;28;20035;-85
2023/12/26 00:29:53;;;;;;;0.40;0.40;;;10.50;99.90;;;;;;5074855;28;20083;-87
2023/12/26 00:32:19;;;;;;;0.70;0.60;;;10.60;99.90;;;;;;5030017;28;20044;-87
2023/12/26 00:34:47;;;;;;;0.80;0.50;;;10.50;99.90;;;;;;5031374;28;20032;-87
2023/12/26 00:37:15;;;;;;;0.90;0.50;;;10.50;99.90;;;;;;5041902;28;20043;-86
2023/12/26 00:39:40;;;;;;;0.68;0.45;;;10.50;99.90;;;;;;5016069;28;20526;-86
2023/12/26 00:42:06;;;;;;;0.75;0.40;;;10.40;99.90;;;;;;5042461;28;20028;-86
2023/12/26 00:44:32;;;;;;;1.15;0.50;;;10.50;99.90;;;;;;5018667;28;20032;-86
2023/12/26 00:46:58;;;;;;;0.50;0.40;;;10.50;99.90;;;;;;5039509;28;20032;-86
2023/12/26 00:49:23;;;;;;;3.10;0.75;;;10.50;99.90;;;;;;5029887;28;20038;-87
2023/12/26 00:51:49;;;;;;;2.25;0.43;;;10.50;99.90;;;;;;5019785;28;20493;-87
2023/12/26 00:54:14;;;;;;;0.63;0.50;;;10.60;99.90;;;;;;5049291;28;20032;-87
2023/12/26 00:56:41;;;;;;;0.32;0.32;;;10.60;99.90;;;;;;5030348;28;20028;-83
2023/12/26 00:59:07;;;;;;;1.65;0.40;;;10.50;99.90;;;;;;5026099;28;20039;-83
2023/12/26 01:01:33;;;;;;;0.60;0.52;;;10.60;99.90;;;;;;5029647;28;20040;-83
2023/12/26 01:03:58;;;;;;;0.57;0.40;;;10.50;99.90;;;;;;5029181;28;20411;-84
2023/12/26 01:06:24;;;;;;;0.38;0.38;;;10.50;99.90;;;;;;5024734;28;20040;-84
2023/12/26 01:08:50;;;;;;;0.85;0.30;;;10.50;99.90;;;;;;5020064;28;20082;-84
2023/12/26 01:11:15;;;;;;;1.50;0.73;;;10.50;99.90;;;;;;5039800;28;20032;-84
2023/12/26 01:13:41;;;;;;;0.52;0.28;;;10.50;99.90;;;;;;5032010;28;20474;-82
2023/12/26 01:16:07;;;;;;;0.65;0.50;;;10.50;99.90;;;;;;4995308;28;20044;-82
2023/12/26 01:18:32;;;;;;;0.40;0.40;;;10.50;99.90;;;;;;5030768;28;20033;-82
2023/12/26 01:20:58;;;;;;;0.50;0.50;;;10.40;99.90;;;;;;5036225;28;20056;-82
2023/12/26 01:23:24;;;;;;;0.93;0.32;;;10.50;99.90;;;;;;5023420;28;20056;-82
2023/12/26 01:25:49;;;;;;;0.30;0.30;;;10.40;99.90;;;;;;5061245;28;20028;-82
2023/12/26 01:28:17;;;;;;;0.63;0.38;;;10.40;99.90;;;;;;5023168;28;20037;-82
2023/12/26 01:30:43;;;;;;;0.88;0.30;;;10.40;99.90;;;;;;5049943;28;20511;-82
2023/12/26 01:33:10;;;;;;;1.23;0.50;;;10.30;99.90;;;;;;5033397;28;20452;-82
2023/12/26 01:35:36;;;;;;;0.65;0.40;;;10.30;99.90;;;;;;5034476;28;20433;-82
2023/12/26 01:38:02;;;;;;;0.47;0.45;;;10.30;99.90;;;;;;5031582;28;20028;-82
2023/12/26 01:40:27;;;;;;;0.95;0.45;;;10.30;99.90;;;;;;5034002;28;20090;-83
2023/12/26 01:42:53;;;;;;;0.40;0.40;;;10.20;99.90;;;;;;5043913;28;20031;-82
2023/12/26 01:45:19;;;;;;;0.73;0.73;;;10.20;99.90;;;;;;5031996;28;20089;-82
2023/12/26 01:47:47;;;;;;;0.50;0.30;;;10.20;99.90;;;;;;5032584;28;20032;-82
2023/12/26 01:50:14;;;;;;;0.40;0.30;;;10.30;99.90;;;;;;5030148;28;20498;-82
2023/12/26 01:52:40;;;;;;;1.35;0.63;;;10.20;99.90;;;;;;5030663;28;20025;-82
2023/12/26 01:55:06;;;;;;;2.10;0.38;;;10.20;99.90;;;;;;5040568;28;20110;-82
2023/12/26 01:57:32;;;;;;;3.30;0.40;;;10.20;99.90;;;;;;5033355;28;20091;-82
2023/12/26 01:59:58;;;;;;;2.05;0.50;;;10.20;99.90;;;;;;5024355;28;20701;-83
2023/12/26 02:02:24;;;;;;;0.85;0.50;;;10.20;99.90;;;;;;5047264;28;20031;-83
2023/12/26 02:04:52;;;;;;;0.68;0.65;;;10.10;99.90;;;;;;5016102;28;20033;-83
2023/12/26 02:07:18;;;;;;;1.50;0.40;;;10.10;99.90;;;;;;5032234;28;20068;-85
2023/12/26 02:09:43;;;;;;;0.30;0.30;;;10.10;99.90;;;;;;5023876;28;20056;-84
2023/12/26 02:12:09;;;;;;;0.52;0.40;;;10.10;99.90;;;;;;5014365;28;20115;-84
2023/12/26 02:14:35;;;;;;;0.30;0.30;;;10.10;99.90;;;;;;5016151;28;20044;-84
2023/12/26 02:17:01;;;;;;;0.35;0.25;;;10.10;99.90;;;;;;5039952;28;20517;-84
2023/12/26 02:19:27;;;;;;;1.30;0.55;;;10.10;99.90;;;;;;5033739;28;20236;-83
2023/12/26 02:21:53;;;;;;;0.50;0.50;;;10.10;99.90;;;;;;5046960;28;20473;-84
2023/12/26 02:24:18;;;;;;;1.42;0.60;;;10.10;99.90;;;;;;5029408;28;20033;-84
2023/12/26 02:26:44;;;;;;;0.32;0.32;;;10.10;99.90;;;;;;5032716;28;20097;-85
2023/12/26 02:29:10;;;;;;;0.60;0.50;;;10.00;99.90;;;;;;5043534;28;20043;-83
2023/12/26 02:31:38;;;;;;;6.70;0.82;;;10.00;99.90;;;;;;5031769;28;20032;-83
2023/12/26 02:34:03;;;;;;;0.30;0.22;;;10.00;99.90;;;;;;5028687;28;20032;-83
2023/12/26 02:36:29;;;;;;;1.15;0.40;;;10.00;99.90;;;;;;5042826;28;21347;-83
2023/12/26 02:38:56;;;;;;;1.27;0.30;;;9.90;99.90;;;;;;5028357;28;20062;-83
2023/12/26 02:41:21;;;;;;;0.45;0.40;;;10.00;99.90;;;;;;5029147;28;20510;-83
2023/12/26 02:43:47;;;;;;;1.88;0.60;;;10.00;99.90;;;;;;5024706;28;20079;-84
2023/12/26 02:46:13;;;;;;;0.75;0.30;;;9.90;99.90;;;;;;5038586;28;20032;-83
2023/12/26 02:48:41;;;;;;;0.40;0.40;;;9.90;99.90;;;;;;5016910;28;20393;-83
2023/12/26 02:51:08;;;;;;;0.28;0.28;;;9.90;99.90;;;;;;5035398;28;20032;-84
2023/12/26 02:53:33;;;;;;;2.20;0.40;;;9.90;99.90;;;;;;5033953;28;20035;-84
2023/12/26 02:55:59;;;;;;;19.45;0.95;;;9.90;99.90;;;;;;5042820;28;20033;-84
2023/12/26 02:58:25;;;;;;;0.57;0.43;;;9.90;99.90;;;;;;5032255;28;20043;-84
2023/12/26 03:00:52;;;;;;;1.67;0.40;;;9.90;99.90;;;;;;5047217;28;20103;-84
2023/12/26 03:03:17;;;;;;;0.65;0.32;;;9.90;99.90;;;;;;5032590;28;20025;-84
2023/12/26 03:05:43;;;;;;;0.60;0.60;;;9.90;99.90;;;;;;5036784;28;20094;-84
2023/12/26 03:08:09;;;;;;;0.30;0.28;;;9.90;99.90;;;;;;5016769;28;20742;-84
2023/12/26 03:10:34;;;;;;;0.50;0.47;;;9.90;99.90;;;;;;5032111;28;20440;-84
2023/12/26 03:13:00;;;;;;;0.82;0.45;;;9.90;99.90;;;;;;5027924;28;20044;-84
2023/12/26 03:15:25;;;;;;;1.50;0.73;;;9.80;99.90;;;;;;5028142;28;20102;-85
2023/12/26 03:17:53;;;;;;;0.30;0.25;;;9.80;99.90;;;;;;5043110;28;20025;-86
2023/12/26 03:20:19;;;;;;;0.63;0.35;;;9.80;99.90;;;;;;5029896;28;20043;-85
2023/12/26 03:22:44;;;;;;;0.55;0.22;;;9.80;99.90;;;;;;5026462;28;20028;-85
2023/12/26 03:25:11;;;;;;;1.38;0.40;;;9.80;99.90;;;;;;5028907;28;20033;-85
2023/12/26 03:27:37;;;;;;;0.43;0.22;;;9.80;99.90;;;;;;5034140;28;20036;-85
2023/12/26 03:30:03;;;;;;;0.30;0.30;;;9.70;99.90;;;;;;5029714;28;20044;-83
2023/12/26 03:32:28;;;;;;;1.38;0.50;;;9.80;99.90;;;;;;5008050;28;20133;-83
2023/12/26 03:34:54;;;;;;;0.50;0.40;;;9.70;99.90;;;;;;5024623;28;20035;-84
2023/12/26 03:37:20;;;;;;;0.93;0.30;;;9.80;99.90;;;;;;5031463;28;20472;-83
2023/12/26 03:39:45;;;;;;;0.82;0.43;;;9.70;99.90;;;;;;5029918;28;20486;-84
2023/12/26 03:42:11;;;;;;;0.30;0.30;;;9.70;99.90;;;;;;5031039;28;20029;-84
2023/12/26 03:44:37;;;;;;;0.40;0.28;;;9.70;99.90;;;;;;5015137;28;20448;-84
2023/12/26 03:47:02;;;;;;;1.08;0.30;;;9.70;99.90;;;;;;5046202;28;20374;-84
2023/12/26 03:49:28;;;;;;;0.63;0.40;;;9.70;99.90;;;;;;5043361;28;20058;-84
2023/12/26 03:51:54;;;;;;;0.20;0.20;;;9.70;99.90;;;;;;5028355;28;20035;-85
2023/12/26 03:54:22;;;;;;;0.35;0.20;;;9.70;99.90;;;;;;5040212;28;20036;-85
2023/12/26 03:56:47;;;;;;;0.17;0.17;;;9.70;99.90;;;;;;5027934;28;20089;-84
2023/12/26 03:59:13;;;;;;;0.20;0.20;;;9.70;99.90;;;;;;5030055;28;20043;-85
2023/12/26 04:01:38;;;;;;;1.55;0.35;;;9.80;99.90;;;;;;5032316;28;20501;-84
2023/12/26 04:04:04;;;;;;;0.65;0.60;;;9.60;99.90;;;;;;5029938;28;20371;-84
2023/12/26 04:06:30;;;;;;;0.38;0.30;;;9.70;99.90;;;;;;5027607;28;20116;-84
2023/12/26 04:08:56;;;;;;;0.40;0.30;;;9.60;99.90;;;;;;5031850;28;20043;-84
2023/12/26 04:11:23;;;;;;;1.42;0.50;;;9.70;99.90;;;;;;5040792;28;20040;-85
2023/12/26 04:13:50;;;;;;;0.85;0.20;;;9.70;99.90;;;;;;5021617;28;20382;-85
2023/12/26 04:16:16;;;;;;;0.17;0.15;;;9.70;99.90;;;;;;5028815;28;20501;-85
2023/12/26 04:18:41;;;;;;;0.32;0.28;;;9.70;99.90;;;;;;5028753;28;20051;-84
2023/12/26 04:21:07;;;;;;;0.22;0.20;;;9.70;99.90;;;;;;5023155;28;20032;-84
2023/12/26 04:23:33;;;;;;;0.20;0.20;;;9.70;99.90;;;;;;5029585;28;20033;-83
2023/12/26 04:25:58;;;;;;;1.05;0.38;;;9.70;99.90;;;;;;5029175;28;20043;-86
2023/12/26 04:28:24;;;;;;;0.38;0.30;;;9.70;99.90;;;;;;5024716;28;20036;-85
2023/12/26 04:30:54;;;;;;;1.20;0.32;;;9.70;99.90;;;;;;5027217;28;20068;-86
2023/12/26 04:33:19;;;;;;;1.13;0.57;;;9.60;99.90;;;;;;5028502;28;20028;-86
2023/12/26 04:35:45;;;;;;;0.22;0.22;;;9.80;99.90;;;;;;5014625;28;20425;-86
2023/12/26 04:38:12;;;;;;;1.45;0.52;;;9.70;99.90;;;;;;5031599;28;20035;-85
2023/12/26 04:40:38;;;;;;;3.17;0.82;;;9.70;99.90;;;;;;5029198;28;20107;-85
2023/12/26 04:43:08;;;;;;;2.33;0.70;;;9.80;99.90;;;;;;5027627;28;20032;-86
2023/12/26 04:45:36;;;;;;;3.47;0.88;;;9.70;99.90;;;;;;5031729;28;20420;-86
2023/12/26 04:48:05;;;;;;;2.03;0.63;;;9.80;99.90;;;;;;5043495;28;20024;-86
2023/12/26 04:50:31;;;;;;;1.05;0.70;;;9.70;99.90;;;;;;5027623;28;20032;-86
2023/12/26 04:52:56;;;;;;;0.50;0.50;;;9.70;99.90;;;;;;5033746;28;20173;-86
2023/12/26 04:55:22;;;;;;;1.38;0.60;;;9.70;99.90;;;;;;5026890;28;20140;-86
2023/12/26 04:57:48;;;;;;;0.73;0.60;;;9.70;99.90;;;;;;5061081;28;20028;-86
2023/12/26 05:00:14;;;;;;;0.43;0.38;;;9.70;99.90;;;;;;5042509;28;20104;-86
2023/12/26 05:02:39;;;;;;;1.15;0.82;;;9.70;99.90;;;;;;5044010;28;20032;-86
2023/12/26 05:05:05;;;;;;;2.72;0.68;;;9.70;99.90;;;;;;5030190;28;20028;-86
2023/12/26 05:07:31;;;;;;;0.50;0.50;;;9.70;99.90;;;;;;5035928;28;20173;-86
2023/12/26 05:09:57;;;;;;;0.50;0.35;;;9.70;99.90;;;;;;5043552;28;20104;-86
2023/12/26 05:12:29;;;;;;;1.65;0.43;;;9.70;99.90;;;;;;5030553;28;20111;-86
2023/12/26 05:14:55;;;;;;;0.73;0.35;;;9.70;99.90;;;;;;5030463;28;20040;-87
2023/12/26 05:17:21;;;;;;;0.35;0.28;;;9.60;99.90;;;;;;5034127;28;20025;-86
2023/12/26 05:19:46;;;;;;;0.15;0.10;;;9.60;99.90;;;;;;5028710;28;20075;-86
2023/12/26 05:22:12;;;;;;;0.28;0.28;;;9.60;99.90;;;;;;5021304;28;20112;-86
2023/12/26 05:24:38;;;;;;;0.57;0.20;;;9.70;99.90;;;;;;5049498;28;20423;-87
2023/12/26 05:27:05;;;;;;;1.40;0.50;;;9.60;99.90;;;;;;5033555;28;20495;-86
2023/12/26 05:29:31;;;;;;;1.38;0.47;;;9.70;99.90;;;;;;5063872;28;22545;-86
2023/12/26 05:31:57;;;;;;;0.40;0.25;;;9.70;99.90;;;;;;5032715;28;20044;-86
2023/12/26 05:34:23;;;;;;;0.80;0.38;;;9.60;99.90;;;;;;5030118;28;20269;-85
2023/12/26 05:36:48;;;;;;;0.77;0.50;;;9.60;99.90;;;;;;5007437;28;20068;-85
2023/12/26 05:39:14;;;;;;;1.98;0.52;;;9.60;99.90;;;;;;5031150;28;20496;-85
2023/12/26 05:41:43;;;;;;;2.35;0.43;;;9.50;99.90;;;;;;5047092;28;20028;-86
2023/12/26 05:44:08;;;;;;;1.98;0.65;;;9.50;99.90;;;;;;5031763;28;20923;-86
2023/12/26 05:46:34;;;;;;;2.47;0.77;;;9.50;99.90;;;;;;5029477;28;20044;-86
2023/12/26 05:49:00;;;;;;;3.38;1.25;;;9.50;99.90;;;;;;5037683;28;20055;-85
2023/12/26 05:51:25;;;;;;;3.42;1.30;;;9.40;99.90;;;;;;5029650;28;20110;-86
2023/12/26 05:53:51;;;;;;;3.80;1.42;;;9.40;99.90;;;;;;5027383;28;20033;-86
2023/12/26 05:56:18;;;;;;;3.83;1.67;;;9.40;99.90;;;;;;5033016;28;20131;-86
2023/12/26 05:58:44;;;;;;;5.40;1.77;;;9.40;99.90;;;;;;5029172;28;20507;-86
2023/12/26 06:01:10;;;;;;;2.17;1.63;;;9.30;99.90;;;;;;5030221;28;20024;-86
2023/12/26 06:03:37;;;;;;;4.13;1.27;;;9.30;99.90;;;;;;5027117;28;20112;-86
2023/12/26 06:06:03;;;;;;;6.68;1.70;;;9.30;99.90;;;;;;5034408;28;20036;-85
2023/12/26 06:08:28;;;;;;;3.85;2.10;;;9.30;99.90;;;;;;5037826;28;20039;-87
2023/12/26 06:10:54;;;;;;;5.82;1.98;;;9.30;99.90;;;;;;5028469;28;20107;-85
2023/12/26 06:13:19;;;;;;;4.38;1.77;;;9.30;99.90;;;;;;5029147;28;20024;-85
2023/12/26 06:15:45;;;;;;;4.90;1.58;;;9.30;99.90;;;;;;5028511;28;20115;-85
2023/12/26 06:18:11;;;;;;;5.38;1.90;;;9.30;99.90;;;;;;5029155;28;20036;-85
2023/12/26 06:20:36;;;;;;;4.70;0.93;;;9.30;99.90;;;;;;5031257;28;20051;-85
2023/12/26 06:23:04;;;;;;;6.57;1.83;;;9.30;99.90;;;;;;5030076;28;20127;-85
2023/12/26 06:25:29;;;;;;;4.13;1.23;;;9.30;99.90;;;;;;5046267;28;20048;-85
2023/12/26 06:27:55;;;;;;;1.95;1.27;;;9.30;99.90;;;;;;5032132;28;20048;-85
2023/12/26 06:30:21;;;;;;;2.60;1.52;;;9.20;99.90;;;;;;5029550;28;20032;-86
2023/12/26 06:32:46;;;;;;;2.20;1.08;;;9.30;99.90;;;;;;5047002;28;20516;-86
2023/12/26 06:35:12;;;;;;;2.63;1.20;;;9.20;99.90;;;;;;5046131;28;20063;-86
2023/12/26 06:37:37;;;;;;;7.20;1.95;;;9.20;99.90;;;;;;5032162;28;20449;-86
2023/12/26 06:40:04;;;;;;;1.83;1.13;;;9.20;99.90;;;;;;5029261;28;20039;-86
2023/12/26 06:42:29;;;;;;;3.65;1.83;;;9.10;99.90;;;;;;5060055;28;20032;-85
2023/12/26 06:44:55;;;;;;;4.40;1.77;;;9.10;99.90;;;;;;5043311;28;20035;-86
2023/12/26 06:47:21;;;;;;;4.90;1.48;;;9.10;99.90;;;;;;5028256;28;20520;-83
2023/12/26 06:49:46;;;;;;;3.33;1.73;;;9.00;99.90;;;;;;5023331;28;20036;-83
2023/12/26 06:52:15;;;;;;;8.55;1.67;;;9.10;99.90;;;;;;5034377;28;20048;-83
2023/12/26 06:54:41;;;;;;;5.32;1.58;;;9.00;99.90;;;;;;5034450;28;20028;-82
2023/12/26 06:57:15;;;;;;;4.70;1.20;;;9.00;99.90;;;;;;5039459;28;20430;-83
2023/12/26 06:59:45;;;;;;;9.73;1.75;;;8.90;99.90;;;;;;5030962;28;20036;-83
2023/12/26 07:02:10;;;;;;;10.93;2.15;;;8.90;99.90;;;;;;5030823;28;20038;-82
2023/12/26 07:04:36;;;;;;;8.80;1.77;;;8.90;99.90;;;;;;5026315;28;20065;-82
2023/12/26 07:07:02;;;;;;;4.93;1.70;;;8.80;99.90;;;;;;5041025;28;20089;-82
2023/12/26 07:09:27;;;;;;;5.05;1.50;;;8.90;99.90;;;;;;5027228;28;20036;-82
2023/12/26 07:11:53;;;;;;;7.53;1.50;;;8.80;99.90;;;;;;5030259;28;20131;-82
2023/12/26 07:14:18;;;;;;;4.88;1.77;;;8.90;99.90;;;;;;5029044;28;20056;-83
2023/12/26 07:16:44;;;;;;;7.75;1.70;;;9.00;99.90;;;;;;5044878;28;20034;-83
2023/12/26 07:19:10;;;;;;;6.80;1.75;;;9.00;99.90;;;;;;5039180;28;20576;-83
2023/12/26 07:21:36;;;;;;;2.67;1.40;;;9.00;99.90;;;;;;5040160;28;20104;-83
2023/12/26 07:24:01;;;;;;;2.33;1.98;;;9.00;99.90;;;;;;5028670;28;20043;-83
2023/12/26 07:26:27;;;;;;;4.47;1.80;;;9.00;99.90;;;;;;5025404;28;20036;-83
2023/12/26 07:28:52;;;;;;;4.43;2.00;;;9.00;99.90;;;;;;5043962;28;20055;-83
2023/12/26 07:31:22;;;;;;;1.23;1.05;;;9.00;99.90;;;;;;5026233;28;20112;-83
2023/12/26 07:33:49;;;;;;;8.30;2.30;;;9.00;99.90;;;;;;5031189;28;20021;-84
2023/12/26 07:36:15;;;;;;;8.52;1.70;;;9.00;99.90;;;;;;5030158;28;20509;-83
2023/12/26 07:38:40;;;;;;;2.75;0.98;;;9.00;99.90;;;;;;5026733;28;20119;-83
2023/12/26 07:41:06;;;;;;;6.53;1.65;;;8.90;99.90;;;;;;5039696;28;20141;-83
2023/12/26 07:43:32;;;;;;;1.00;0.70;;;9.00;99.90;;;;;;5028290;28;20032;-82
2023/12/26 07:45:58;;;;;;;4.60;1.60;;;9.10;99.90;;;;;;5029866;28;20031;-82
2023/12/26 07:48:23;;;;;;;8.35;2.08;;;8.90;99.90;;;;;;5029919;28;20017;-83
2023/12/26 07:50:49;;;;;;;6.93;1.50;;;8.90;99.90;;;;;;5040261;28;20420;-83
2023/12/26 07:53:15;;;;;;;4.43;1.55;;;8.90;99.90;;;;;;5027588;28;20120;-83
2023/12/26 07:55:41;;;;;;;2.58;1.13;;;8.80;99.90;;;;;;5043825;28;20391;-83
2023/12/26 07:58:07;;;;;;;4.43;1.60;;;8.80;99.90;;;;;;5025202;28;20032;-83
2023/12/26 08:00:33;;;;;;;6.95;1.58;;;8.90;99.90;;;;;;5025493;28;20409;-83
2023/12/26 08:02:58;;;;;;;7.65;1.40;;;8.80;99.90;;;;;;5028521;28;20040;-83
2023/12/26 08:05:24;;;;;;;8.05;1.30;;;8.80;99.90;;;;;;5042581;28;20031;-83
2023/12/26 08:07:50;;;;;;;5.25;1.45;;;8.80;99.90;;;;;;5030659;28;20032;-83
2023/12/26 08:10:17;;;;;;;7.97;1.35;;;8.80;99.90;;;;;;5028205;28;20028;-83
2023/12/26 08:12:43;;;;;;;12.50;1.45;;;8.80;99.90;;;;;;5039802;28;20035;-83
2023/12/26 08:15:12;;;;;;;7.40;1.25;;;8.70;99.90;;;;;;5027737;28;20047;-83
2023/12/26 08:17:37;;;;;;;6.82;1.25;;;8.80;99.90;;;;;;5025264;28;20028;-82
2023/12/26 08:20:03;;;;;;;6.93;1.00;;;8.70;99.90;;;;;;5042784;28;20035;-83
2023/12/26 08:22:29;;;;;;;7.78;1.08;;;8.80;99.90;;;;;;5026108;28;20040;-83
2023/12/26 08:24:55;;;;;;;3.08;1.00;;;8.70;99.90;;;;;;5039061;28;20386;-83
2023/12/26 08:27:22;;;;;;;5.75;1.13;;;8.70;99.90;;;;;;5028720;28;20028;-82
2023/12/26 08:29:49;;;;;;;6.32;1.33;;;8.70;99.90;;;;;;5024350;28;20032;-83
2023/12/26 08:32:14;;;;;;;5.20;0.82;;;8.60;99.90;;;;;;5026005;28;20167;-82
2023/12/26 08:34:44;;;;;;;10.23;1.50;;;8.60;99.90;;;;;;5040948;28;20122;-81
2023/12/26 08:37:12;;;;;;;6.78;1.40;;;8.50;99.90;;;;;;5024235;28;20055;-83
2023/12/26 08:39:40;;;;;;;5.05;0.90;;;8.60;99.90;;;;;;5029038;28;20478;-83
2023/12/26 08:42:06;;;;;;;6.80;0.93;;;8.50;99.90;;;;;;5025403;28;20580;-83
2023/12/26 08:44:31;;;;;;;6.93;1.58;;;8.40;99.90;;;;;;5044287;28;20513;-83
2023/12/26 08:47:05;;;;;;;3.65;0.93;;;8.40;99.90;;;;;;5028252;28;20036;-83
2023/12/26 08:49:31;;;;;;;10.63;1.45;;;8.40;99.90;;;;;;5025253;28;20033;-83
2023/12/26 08:51:58;;;;;;;5.30;1.05;;;8.40;99.90;;;;;;5026705;28;20102;-83
2023/12/26 08:54:23;;;;;;;6.10;1.50;;;8.50;99.90;;;;;;5041000;28;20103;-82
2023/12/26 08:57:02;;;;;;;10.88;1.00;;;8.40;99.90;;;;;;5026873;28;20581;-83
2023/12/26 08:59:28;;;;;;;7.00;1.08;;;8.40;99.90;;;;;;5020696;28;20058;-83
2023/12/26 09:01:54;;;;;;;2.50;0.50;;;8.50;99.90;;;;;;5025634;28;20036;-83
2023/12/26 09:04:26;;;;;;;3.55;0.95;;;8.50;99.90;;;;;;5041244;28;20056;-83
2023/12/26 09:06:59;;;;;;;7.43;1.27;;;8.50;99.90;;;;;;5033449;28;20040;-83
2023/12/26 09:09:28;;;;;;;4.57;0.63;;;8.40;99.90;;;;;;5027853;28;20452;-92
2023/12/26 09:12:03;;;;;;;6.72;0.70;;;8.50;99.90;;;;;;5034517;28;20096;-93
2023/12/26 09:14:32;;;;;;;7.57;1.23;;;8.50;99.90;;;;;;5057505;28;20024;-91
2023/12/26 09:17:03;;;;;;;6.90;1.08;;;8.40;99.90;;;;;;5037141;28;20020;-93
2023/12/26 09:19:39;;;;;;;1.65;0.40;;;8.50;99.90;;;;;;5050178;28;20040;-94
2023/12/26 09:22:22;;;;;;;4.35;0.70;;;8.50;99.90;;;;;;5038929;28;20021;-86
2023/12/26 09:24:48;;;;;;;1.98;0.85;;;8.30;99.90;;;;;;5025192;28;20044;-95
2023/12/26 09:27:14;;;;;;;4.72;1.15;;;8.50;99.90;;;;;;5068936;28;20477;-92
2023/12/26 09:29:42;;;;;;;7.35;2.20;;;8.70;99.90;;;;;;5033931;28;20044;-93
2023/12/26 09:32:25;;;;;;;3.78;1.10;;;8.60;99.90;;;;;;5048175;28;20055;-91
2023/12/26 09:34:51;;;;;;;4.07;1.05;;;8.70;99.90;;;;;;5053233;28;20038;-93
2023/12/26 09:37:19;;;;;;;5.50;1.33;;;8.70;99.90;;;;;;5029718;28;20032;-91
2023/12/26 09:39:48;;;;;;;5.85;0.93;;;8.60;99.90;;;;;;5046410;28;20486;-91
2023/12/26 09:42:14;;;;;;;6.28;1.15;;;8.60;99.90;;;;;;5039499;28;20518;-93
2023/12/26 09:44:48;;;;;;;3.33;0.95;;;8.70;99.90;;;;;;5021327;28;20051;-91
2023/12/26 09:47:19;;;;;;;6.47;1.10;;;8.70;99.90;;;;;;5019978;28;20050;-90
2023/12/26 09:50:01;;;;;;;1.65;1.10;;;8.80;99.90;;;;;;5019377;28;20489;-85
2023/12/26 09:52:31;;;;;;;3.90;0.98;;;8.90;99.90;;;;;;5045297;28;20048;-91
2023/12/26 09:55:10;;;;;;;;;;;;;;;;;;;;;
2023/12/26 09:57:43;;;;;;;1.92;0.90;;;8.90;99.90;;;;;;5053082;28;20092;-89
2023/12/26 10:00:17;;;;;;;2.92;1.38;;;8.90;99.90;;;;;;5041345;28;20032;-87
2023/12/26 10:03:05;;;;;;;5.55;1.20;;;9.00;99.90;;;;;;5042816;28;20039;-89
2023/12/26 10:05:36;;;;;;;3.78;0.73;;;9.10;99.90;;;;;;5066206;28;20028;-90
2023/12/26 10:08:01;;;;;;;6.70;1.25;;;9.20;99.90;;;;;;5010483;28;20039;-85
2023/12/26 10:10:29;;;;;;;9.80;2.00;;;9.20;99.90;;;;;;5027237;28;20037;-85
2023/12/26 10:12:55;;;;;;;11.18;2.22;;;9.30;99.90;;;;;;5029226;28;20078;-84
2023/12/26 10:15:21;;;;;;;5.05;1.02;;;9.30;99.90;;;;;;5020137;28;20029;-85
2023/12/26 10:17:48;;;;;;;4.47;1.13;;;9.30;99.90;;;;;;5044630;28;20462;-85
2023/12/26 10:20:17;;;;;;;9.55;1.58;;;9.30;99.90;;;;;;5038621;28;20043;-85
2023/12/26 10:22:43;;;;;;;10.32;1.25;;;9.20;99.90;;;;;;5023331;28;20747;-85
2023/12/26 10:25:11;;;;;;;11.90;3.35;;;9.20;99.90;;;;;;5044176;28;20032;-85
2023/12/26 10:27:38;;;;;;;8.25;1.65;;;9.20;99.90;;;;;;5028242;28;20070;-84
2023/12/26 10:30:04;;;;;;;7.78;1.52;;;9.20;99.90;;;;;;5039302;28;20038;-84
2023/12/26 10:32:30;;;;;;;5.68;1.17;;;9.10;99.90;;;;;;5060227;28;20371;-84
2023/12/26 10:34:56;;;;;;;13.82;1.63;;;9.00;99.90;;;;;;5043962;28;20036;-84
2023/12/26 10:37:22;;;;;;;7.80;1.80;;;9.20;99.90;;;;;;5044307;28;20028;-84
2023/12/26 10:39:48;;;;;;;5.03;1.13;;;9.00;99.90;;;;;;5025708;28;20588;-84
2023/12/26 10:42:18;;;;;;;4.50;1.48;;;9.00;99.90;;;;;;5027050;28;20040;-84
2023/12/26 10:44:57;;;;;;;6.40;1.42;;;8.90;99.90;;;;;;5048182;28;20028;-84
2023/12/26 10:47:23;;;;;;;5.78;1.30;;;8.90;99.90;;;;;;5045362;28;20134;-85
2023/12/26 10:49:48;;;;;;;11.25;1.65;;;8.80;99.90;;;;;;5026747;28;20183;-84
2023/12/26 10:52:14;;;;;;;11.60;1.48;;;8.90;99.90;;;;;;5027934;28;20528;-84
2023/12/26 10:54:39;;;;;;;8.18;1.38;;;8.90;99.90;;;;;;5027989;28;20058;-84
2023/12/26 10:57:06;;;;;;;4.22;1.38;;;8.90;99.90;;;;;;5028296;28;20070;-84
2023/12/26 13:51:47;;;;;;;6.68;1.23;;;10.30;99.90;;;;;;5082689;28;20035;-84
2023/12/26 13:54:50;;;;;;;8.93;1.30;;;10.30;99.90;;;;;;5060738;28;20751;-84
2023/12/26 13:57:53;;;;;;;8.85;1.27;;;10.20;99.90;;;;;;5057268;28;20036;-83
2023/12/26 14:00:56;;;;;;;6.35;1.27;;;10.20;99.90;;;;;;5057381;28;20040;-85
2023/12/26 14:04:00;;;;;;;8.23;1.60;;;10.10;99.90;;;;;;5048123;28;20140;-84
2023/12/26 14:07:03;;;;;;;8.25;1.25;;;10.00;99.90;;;;;;5039997;28;20620;-84
2023/12/26 14:10:06;;;;;;;4.47;1.75;;;10.10;99.90;;;;;;5048479;28;20062;-84
2023/12/26 14:13:09;;;;;;;4.80;1.48;;;10.00;99.90;;;;;;5061908;28;20040;-84
2023/12/26 14:16:12;;;;;;;10.85;1.70;;;9.90;99.90;;;;;;5062953;28;20040;-84
2023/12/26 14:19:15;;;;;;;2.50;0.95;;;9.90;99.90;;;;;;5059862;28;20165;-84
2023/12/26 14:22:17;;;;;;;6.97;1.58;;;9.80;99.90;;;;;;5053573;28;20448;-84
2023/12/26 14:25:20;;;;;;;10.25;1.88;;;9.70;99.90;;;;;;5054633;28;20543;-84
2023/12/26 14:28:23;;;;;;;5.53;1.33;;;9.80;99.90;;;;;;5061659;28;20024;-85
2023/12/26 14:31:28;;;;;;;5.22;1.10;;;9.70;99.90;;;;;;5078660;28;20071;-84
2023/12/26 14:34:31;;;;;;;2.88;1.25;;;9.70;99.90;;;;;;5058802;28;20033;-84
2023/12/26 14:37:34;;;;;;;15.40;1.90;;;9.70;99.90;;;;;;5055837;28;20036;-84
2023/12/26 14:40:37;;;;;;;7.97;1.65;;;9.70;99.90;;;;;;5064730;28;20094;-83
2023/12/26 14:43:43;;;;;;;3.97;0.80;;;9.60;99.90;;;;;;5061521;28;20413;-84
2023/12/26 14:46:45;;;;;;;11.57;1.52;;;9.50;99.90;;;;;;5061154;28;20060;-84
2023/12/26 14:49:48;;;;;;;4.03;1.80;;;9.50;99.90;;;;;;5055443;28;20040;-84
2023/12/26 14:52:51;;;;;;;6.13;1.60;;;9.40;99.90;;;;;;5064273;28;20038;-85
2023/12/26 14:55:54;;;;;;;12.00;2.08;;;9.40;99.90;;;;;;5059998;28;20031;-84
2023/12/26 14:58:57;;;;;;;5.22;0.80;;;9.40;99.90;;;;;;5077526;28;20028;-83
2023/12/26 15:01:58;;;;;;;1.23;0.57;;;9.30;99.90;;;;;;5066529;28;20714;-89
2023/12/26 15:04:26;;;;;;;12.18;1.77;;;9.30;99.90;;;;;;5043417;28;20054;-84
2023/12/26 15:06:52;;;;;;;7.97;1.42;;;9.30;99.90;;;;;;5043604;28;20039;-84
2023/12/26 15:09:18;;;;;;;7.15;1.02;;;9.20;99.90;;;;;;5033560;28;20020;-84
2023/12/26 15:11:44;;;;;;;4.03;1.15;;;9.30;99.90;;;;;;5027363;28;20028;-84
2023/12/26 15:14:13;;;;;;;16.67;1.90;;;9.20;99.90;;;;;;5028562;28;20032;-84
2023/12/26 15:16:43;;;;;;;8.18;1.80;;;9.10;99.90;;;;;;5023956;28;20021;-84
2023/12/26 15:19:09;;;;;;;5.13;1.27;;;9.30;99.90;;;;;;5044975;28;20040;-84
2023/12/26 15:21:44;;;;;;;9.70;1.75;;;9.20;99.90;;;;;;5039886;28;20024;-84
2023/12/26 15:24:13;;;;;;;12.15;3.20;;;9.20;99.90;;;;;;5029029;28;20029;-84
2023/12/26 15:26:38;;;;;;;14.80;1.77;;;9.20;99.90;;;;;;5048476;28;20020;-84
2023/12/26 15:29:04;;;;;;;4.95;1.20;;;9.00;99.90;;;;;;5026617;28;20560;-84
2023/12/26 15:31:30;;;;;;;11.13;1.65;;;9.10;99.90;;;;;;5039979;28;20398;-84
2023/12/26 15:33:56;;;;;;;4.95;1.05;;;9.10;99.90;;;;;;5041988;28;20096;-84
2023/12/26 15:36:26;;;;;;;8.98;1.42;;;9.10;99.90;;;;;;5061990;28;20382;-84
2023/12/26 15:38:52;;;;;;;3.95;1.38;;;9.10;99.90;;;;;;5024853;28;20407;-84
2023/12/26 15:41:18;;;;;;;9.30;1.85;;;9.00;99.90;;;;;;5029946;28;20044;-84
2023/12/26 15:43:44;;;;;;;8.75;1.85;;;8.90;99.90;;;;;;5003848;28;20490;-84
2023/12/26 15:46:17;;;;;;;5.78;1.48;;;8.90;99.90;;;;;;5027505;28;20031;-91
2023/12/26 15:48:43;;;;;;;13.05;2.00;;;8.90;99.90;;;;;;5045642;28;20032;-91
2023/12/26 15:51:13;;;;;;;6.28;1.90;;;8.80;99.90;;;;;;5059056;28;20036;-89
2023/12/26 15:53:42;;;;;;;8.55;1.60;;;8.80;99.90;;;;;;5050887;28;20032;-91
2023/12/26 15:56:08;;;;;;;10.18;2.53;;;8.80;99.90;;;;;;5038395;28;20606;-90
2023/12/26 15:58:34;;;;;;;7.63;1.58;;;8.80;99.90;;;;;;5032170;28;20052;-88